Time;durP1;ratioP1;P1;durP2;ratioP2;P2;SDS_P1;SDS_P2;PMS_P1;PMS_P2;Temp;Humidity;BMP_temperature;BMP_pressure;BME280_temperature;BME280_humidity;BME280_pressure;Samples;Min_cycle;Max_cycle;Signal;HPM_P1;HPM_P2
2023/06/18 00:02:01;;;;;;;7.03;6.38;;;;;;;23.94;41.55;101189.41;5072488;28;20028;-64
2023/06/18 00:04:27;;;;;;;10.48;6.25;;;;;;;23.95;41.61;101185.38;5072600;28;20081;-64
2023/06/18 00:06:54;;;;;;;8.73;6.55;;;;;;;23.89;41.36;101187.53;5073821;28;20029;-63
2023/06/18 00:09:19;;;;;;;8.57;6.45;;;;;;;23.88;41.59;101185.88;5081515;28;20458;-64
2023/06/18 00:11:44;;;;;;;9.20;6.60;;;;;;;23.89;41.43;101183.88;5082067;28;20036;-64
2023/06/18 00:14:10;;;;;;;7.95;6.90;;;;;;;23.83;41.92;101182.41;5074573;28;20084;-64
2023/06/18 00:16:35;;;;;;;7.90;6.40;;;;;;;23.85;41.49;101182.88;5071839;28;20024;-64
2023/06/18 00:19:00;;;;;;;8.20;6.47;;;;;;;23.86;42.34;101184.56;5055470;28;20040;-64
2023/06/18 00:21:26;;;;;;;7.95;6.82;;;;;;;23.82;42.32;101184.41;5071956;28;20027;-64
2023/06/18 00:23:51;;;;;;;10.48;6.63;;;;;;;23.81;41.70;101182.72;5087302;28;20028;-64
2023/06/18 00:26:16;;;;;;;8.18;6.28;;;;;;;23.79;41.69;101170.06;5093963;28;20070;-64
2023/06/18 00:28:42;;;;;;;8.10;6.30;;;;;;;23.77;42.15;101171.22;5089415;28;20028;-64
2023/06/18 00:31:11;;;;;;;9.30;6.20;;;;;;;23.75;42.50;101172.75;5072422;28;20039;-64
2023/06/18 00:33:36;;;;;;;10.02;6.43;;;;;;;23.74;42.25;101173.91;5072103;28;20089;-64
2023/06/18 00:36:06;;;;;;;7.50;6.70;;;;;;;23.73;42.64;101175.06;5062927;28;20033;-64
2023/06/18 00:38:33;;;;;;;8.13;6.80;;;;;;;23.71;42.26;101166.91;5062755;28;20040;-64
2023/06/18 00:40:58;;;;;;;7.18;6.45;;;;;;;23.67;42.60;101168.75;5072585;28;20162;-64
2023/06/18 00:43:23;;;;;;;8.00;6.30;;;;;;;23.68;42.41;101161.91;5075914;28;20523;-64
2023/06/18 00:45:50;;;;;;;9.60;6.90;;;;;;;23.64;42.93;101160.03;5076180;28;20032;-64
2023/06/18 00:48:17;;;;;;;7.10;6.35;;;;;;;23.63;42.87;101150.72;5072732;28;20060;-64
2023/06/18 00:50:42;;;;;;;8.38;6.60;;;;;;;23.60;42.93;101153.38;5083665;28;20040;-63
2023/06/18 00:53:09;;;;;;;7.25;6.50;;;;;;;23.56;42.72;101161.72;5073743;28;20043;-64
2023/06/18 00:55:37;;;;;;;7.22;6.53;;;;;;;23.58;42.93;101152.84;5084380;28;20028;-64
2023/06/18 00:58:03;;;;;;;7.18;6.47;;;;;;;23.57;43.02;101154.03;5084844;28;20035;-64
2023/06/18 01:00:34;;;;;;;10.57;6.18;;;;;;;23.51;43.05;101151.38;5081469;28;20035;-64
2023/06/18 01:03:16;;;;;;;7.40;6.57;;;;;;;23.53;43.08;101145.38;5082961;28;20033;-63
2023/06/18 01:05:43;;;;;;;9.03;7.50;;;;;;;23.43;43.23;101142.88;5065056;28;20024;-63
2023/06/18 01:08:12;;;;;;;7.72;6.93;;;;;;;23.44;43.35;101148.22;5074919;28;20027;-63
2023/06/18 01:10:40;;;;;;;7.88;6.88;;;;;;;23.43;43.33;101151.38;5087536;28;20031;-64
2023/06/18 01:13:08;;;;;;;7.90;6.90;;;;;;;23.40;43.22;101152.88;5089655;28;20585;-64
2023/06/18 01:15:33;;;;;;;7.57;6.78;;;;;;;23.39;43.31;101148.38;5087593;28;20040;-64
2023/06/18 01:18:00;;;;;;;11.77;7.35;;;;;;;23.36;43.55;101140.53;5093223;28;20486;-64
2023/06/18 01:20:27;;;;;;;9.55;7.45;;;;;;;23.29;43.70;101145.88;5084599;28;20029;-63
2023/06/18 01:23:06;;;;;;;7.65;6.82;;;;;;;23.28;43.70;101142.19;5053872;28;20047;-64
2023/06/18 01:25:36;;;;;;;8.43;6.60;;;;;;;23.30;44.09;101136.19;5052880;28;20044;-64
2023/06/18 01:28:07;;;;;;;8.13;7.32;;;;;;;23.24;43.75;101135.53;5087270;28;20028;-64
2023/06/18 01:30:36;;;;;;;7.32;6.50;;;;;;;23.29;43.33;101140.19;5088502;28;20044;-64
2023/06/18 01:33:01;;;;;;;11.85;7.78;;;;;;;23.21;44.12;101139.03;5088713;28;20073;-65
2023/06/18 01:35:27;;;;;;;9.07;6.85;;;;;;;23.24;44.11;101131.88;5084736;28;20464;-64
2023/06/18 01:38:01;;;;;;;8.52;7.68;;;;;;;23.18;44.30;101136.03;5080100;28;20040;-64
2023/06/18 01:40:41;;;;;;;8.07;7.20;;;;;;;23.15;43.96;101137.53;5068887;28;20114;-64
2023/06/18 01:43:16;;;;;;;7.85;7.05;;;;;;;23.12;44.34;101128.88;5059647;28;20387;-64
2023/06/18 01:45:47;;;;;;;8.15;7.32;;;;;;;23.10;44.41;101123.53;5071584;28;20029;-64
2023/06/18 01:48:13;;;;;;;9.53;7.80;;;;;;;23.09;44.15;101123.88;5070891;28;20028;-64
2023/06/18 01:50:43;;;;;;;8.75;7.18;;;;;;;23.07;44.19;101118.53;5074288;28;20123;-63
2023/06/18 01:53:13;;;;;;;9.40;7.25;;;;;;;23.07;44.14;101121.38;5091653;28;20032;-64
2023/06/18 01:55:41;;;;;;;8.88;7.97;;;;;;;23.00;44.45;101118.19;5088845;28;20054;-64
2023/06/18 01:58:07;;;;;;;10.43;7.88;;;;;;;22.96;44.29;101134.19;5076944;28;20032;-65
2023/06/18 02:00:32;;;;;;;11.07;8.07;;;;;;;22.94;44.52;101130.81;5064650;28;20020;-65
2023/06/18 02:02:58;;;;;;;8.30;7.47;;;;;;;22.94;44.46;101131.66;5051892;28;20033;-65
2023/06/18 02:05:24;;;;;;;9.35;7.95;;;;;;;22.91;44.43;101129.50;5057347;28;20059;-64
2023/06/18 02:07:49;;;;;;;8.80;7.28;;;;;;;22.93;44.39;101120.69;5059774;28;20108;-65
2023/06/18 02:10:15;;;;;;;10.93;8.88;;;;;;;22.87;44.63;101117.16;5076588;28;20038;-65
2023/06/18 02:12:40;;;;;;;10.88;8.18;;;;;;;22.83;44.68;101116.13;5091168;28;20570;-65
2023/06/18 02:15:06;;;;;;;8.55;7.47;;;;;;;22.86;44.54;101125.94;5091421;28;20487;-64
2023/06/18 02:17:32;;;;;;;10.73;9.02;;;;;;;22.77;45.08;101115.44;5081431;28;20036;-65
2023/06/18 02:19:57;;;;;;;12.10;8.63;;;;;;;22.79;44.92;101115.97;5071676;28;20020;-64
2023/06/18 02:22:26;;;;;;;11.52;9.52;;;;;;;22.76;44.96;101118.63;5087540;28;20068;-65
2023/06/18 02:24:52;;;;;;;12.70;8.52;;;;;;;22.74;44.74;101110.44;5087473;28;20380;-65
2023/06/18 02:27:18;;;;;;;11.02;9.07;;;;;;;22.70;44.99;101112.25;5091357;28;20035;-64
2023/06/18 02:29:44;;;;;;;9.38;8.48;;;;;;;22.72;44.84;101115.63;5090455;28;20479;-65
2023/06/18 02:32:09;;;;;;;10.20;8.82;;;;;;;22.66;45.06;101114.09;5076211;28;20082;-65
2023/06/18 02:34:35;;;;;;;9.65;8.65;;;;;;;22.69;45.09;101106.94;5067422;28;20944;-64
2023/06/18 02:37:01;;;;;;;14.30;9.90;;;;;;;22.65;45.38;101106.75;5067420;28;20021;-65
2023/06/18 02:39:26;;;;;;;11.70;8.93;;;;;;;22.65;45.42;101098.28;5078836;28;20036;-65
2023/06/18 02:41:52;;;;;;;10.88;9.52;;;;;;;22.59;45.50;101093.91;5075481;28;20442;-65
2023/06/18 02:44:18;;;;;;;11.77;10.13;;;;;;;22.57;45.42;101096.25;5089906;28;20027;-65
2023/06/18 02:46:43;;;;;;;11.40;9.65;;;;;;;22.57;45.41;101096.25;5090985;28;20114;-65
2023/06/18 02:49:08;;;;;;;10.88;9.52;;;;;;;22.50;45.65;101098.72;5090328;28;20020;-65
2023/06/18 02:51:34;;;;;;;11.13;10.02;;;;;;;22.47;45.35;101107.88;5072312;28;20032;-65
2023/06/18 02:53:59;;;;;;;10.18;9.02;;;;;;;22.50;45.48;101104.38;5070465;28;20028;-65
2023/06/18 02:56:28;;;;;;;13.00;10.27;;;;;;;22.44;45.69;101105.69;5062267;28;20029;-65
2023/06/18 02:58:55;;;;;;;16.80;9.55;;;;;;;22.38;46.04;101092.88;5049584;28;20729;-65
2023/06/18 03:01:23;;;;;;;14.68;10.63;;;;;;;22.33;46.22;101096.69;5069027;28;20027;-65
2023/06/18 03:03:48;;;;;;;13.02;9.48;;;;;;;22.35;46.35;101096.34;5076839;28;20047;-65
2023/06/18 03:06:14;;;;;;;14.95;9.73;;;;;;;22.34;46.13;101097.50;5072365;28;20482;-65
2023/06/18 03:08:39;;;;;;;14.13;10.00;;;;;;;22.36;45.93;101103.66;5086232;28;20036;-65
2023/06/18 03:11:04;;;;;;;11.52;10.02;;;;;;;22.32;45.81;101103.47;5072568;28;20036;-65
2023/06/18 03:13:30;;;;;;;15.55;9.00;;;;;;;22.35;45.79;101105.66;5061852;28;20029;-65
2023/06/18 03:15:55;;;;;;;15.07;10.50;;;;;;;22.34;45.84;101109.66;5080810;28;20047;-65
2023/06/18 03:18:20;;;;;;;13.80;11.15;;;;;;;22.23;46.24;101111.09;5083774;28;20038;-65
2023/06/18 03:20:46;;;;;;;13.43;10.00;;;;;;;22.22;46.47;101106.59;5067630;28;20020;-65
2023/06/18 03:23:11;;;;;;;13.65;10.00;;;;;;;22.20;46.60;101098.44;5069921;28;20043;-65
2023/06/18 03:25:36;;;;;;;12.60;11.30;;;;;;;22.17;46.25;101103.94;5071752;28;20055;-65
2023/06/18 03:28:02;;;;;;;13.13;10.68;;;;;;;22.15;46.27;101111.88;5082034;28;20502;-65
2023/06/18 03:30:27;;;;;;;20.88;11.13;;;;;;;22.12;46.53;101107.69;5070771;28;20105;-65
2023/06/18 03:32:55;;;;;;;17.65;10.80;;;;;;;22.04;46.85;101105.66;5083018;28;20029;-65
2023/06/18 03:35:21;;;;;;;13.88;11.07;;;;;;;22.04;46.94;101100.81;5070823;28;20040;-65
2023/06/18 03:37:46;;;;;;;12.27;10.98;;;;;;;22.04;46.98;101105.66;5089451;28;20046;-65
2023/06/18 03:40:12;;;;;;;13.10;10.68;;;;;;;22.05;46.99;101110.16;5084772;28;20775;-65
2023/06/18 03:42:37;;;;;;;15.57;11.20;;;;;;;22.05;46.95;101101.69;5085389;28;20028;-65
2023/06/18 03:45:02;;;;;;;18.33;11.63;;;;;;;22.06;46.64;101111.81;5066875;28;20033;-65
2023/06/18 03:47:28;;;;;;;16.52;12.27;;;;;;;22.00;47.12;101110.28;5064649;28;20040;-65
2023/06/18 03:49:53;;;;;;;15.35;12.38;;;;;;;22.00;47.38;101111.09;5072100;28;20564;-65
2023/06/18 03:52:18;;;;;;;13.30;11.25;;;;;;;22.01;46.90;101107.16;5070327;28;20040;-65
2023/06/18 03:54:43;;;;;;;20.70;12.18;;;;;;;21.96;47.45;101103.59;5080481;28;20101;-65
2023/06/18 03:57:09;;;;;;;16.25;12.32;;;;;;;21.93;47.36;101116.41;5081531;28;20043;-65
2023/06/18 03:59:35;;;;;;;14.57;11.02;;;;;;;21.97;47.36;101111.78;5068913;28;20499;-65
2023/06/18 04:02:00;;;;;;;14.38;12.73;;;;;;;21.95;47.41;101119.72;5073988;28;20050;-65
2023/06/18 04:04:25;;;;;;;18.00;11.60;;;;;;;21.95;47.32;101118.91;5073022;28;20111;-65
2023/06/18 04:06:51;;;;;;;14.95;12.32;;;;;;;21.95;47.34;101122.56;5087708;28;20031;-65
2023/06/18 04:09:16;;;;;;;16.25;12.57;;;;;;;21.90;47.76;101122.72;5081195;28;20054;-65
2023/06/18 04:11:42;;;;;;;18.02;13.60;;;;;;;21.92;47.61;101130.84;5079932;28;20043;-65
2023/06/18 04:14:08;;;;;;;14.00;11.23;;;;;;;21.95;47.56;101124.56;5074858;28;20029;-65
2023/06/18 04:16:33;;;;;;;17.95;13.80;;;;;;;21.79;48.00;101122.13;5086197;28;20050;-65
2023/06/18 04:18:59;;;;;;;19.67;12.27;;;;;;;21.89;47.98;101126.69;5063887;28;20393;-65
2023/06/18 04:21:24;;;;;;;14.43;10.45;;;;;;;21.88;48.03;101124.16;5065210;28;20032;-65
2023/06/18 04:23:50;;;;;;;22.08;14.10;;;;;;;21.85;48.24;101128.50;5086063;28;20134;-65
2023/06/18 04:26:15;;;;;;;23.70;15.52;;;;;;;21.81;48.40;101122.66;5074763;28;20070;-66
2023/06/18 04:28:40;;;;;;;16.25;12.63;;;;;;;21.88;47.94;101115.69;5071487;28;20063;-65
2023/06/18 04:31:05;;;;;;;18.42;14.55;;;;;;;21.86;48.21;101118.03;5088987;28;20031;-65
2023/06/18 04:33:31;;;;;;;20.52;13.38;;;;;;;21.91;48.09;101126.38;5088221;28;20047;-65
2023/06/18 04:35:56;;;;;;;14.13;10.00;;;;;;;21.92;47.90;101116.72;5068863;28;20045;-65
2023/06/18 04:38:22;;;;;;;21.67;14.95;;;;;;;21.88;48.15;101115.69;5052401;28;20024;-63
2023/06/18 04:40:48;;;;;;;14.00;11.55;;;;;;;21.96;47.77;101114.91;5061227;28;20058;-63
2023/06/18 04:43:14;;;;;;;17.60;13.40;;;;;;;21.89;48.17;101118.22;5092182;28;20032;-63
2023/06/18 04:45:39;;;;;;;19.10;14.07;;;;;;;21.92;48.03;101116.72;5090544;28;20742;-64
2023/06/18 04:48:04;;;;;;;23.15;14.43;;;;;;;21.92;48.20;101113.88;5064848;28;20032;-64
2023/06/18 04:50:30;;;;;;;24.45;15.50;;;;;;;21.90;48.36;101110.56;5073144;28;20039;-64
2023/06/18 04:52:55;;;;;;;21.35;13.25;;;;;;;21.93;48.32;101109.91;5092911;28;20028;-64
2023/06/18 04:55:20;;;;;;;15.57;11.05;;;;;;;21.98;48.00;101109.78;5092568;28;20078;-64
2023/06/18 04:57:46;;;;;;;17.23;13.95;;;;;;;21.94;48.05;101118.06;5092148;28;20523;-64
2023/06/18 05:00:12;;;;;;;15.88;13.23;;;;;;;21.95;48.17;101121.72;5090197;28;20039;-64
2023/06/18 05:02:37;;;;;;;15.35;13.75;;;;;;;21.95;48.30;101116.91;5056685;28;20037;-64
2023/06/18 05:05:03;;;;;;;19.52;15.18;;;;;;;21.99;48.20;101128.41;5066067;28;20047;-64
2023/06/18 05:07:31;;;;;;;18.05;14.48;;;;;;;21.96;48.41;101124.22;5092720;28;20024;-65
2023/06/18 05:09:57;;;;;;;19.73;14.27;;;;;;;21.97;48.09;101116.59;5074381;28;20067;-64
2023/06/18 05:12:22;;;;;;;19.15;14.20;;;;;;;21.96;48.03;101121.41;5086572;28;20032;-64
2023/06/18 05:14:48;;;;;;;18.10;12.63;;;;;;;22.00;47.87;101130.06;5092132;28;20048;-65
2023/06/18 05:17:13;;;;;;;15.45;13.30;;;;;;;22.04;47.80;101122.59;5074936;28;20025;-64
2023/06/18 05:19:38;;;;;;;16.33;14.48;;;;;;;22.05;48.11;101135.59;5066970;28;20449;-64
2023/06/18 05:22:04;;;;;;;15.82;13.60;;;;;;;22.02;47.56;101131.41;5071480;28;20032;-64
2023/06/18 05:24:29;;;;;;;13.85;12.05;;;;;;;22.09;47.40;101124.47;5071609;28;20025;-64
2023/06/18 05:26:54;;;;;;;16.05;13.52;;;;;;;22.11;47.57;101128.63;5071349;28;20060;-64
2023/06/18 05:29:20;;;;;;;16.92;13.73;;;;;;;22.15;47.60;101129.69;5071493;28;20123;-64
2023/06/18 05:31:47;;;;;;;17.23;15.45;;;;;;;22.14;47.06;101133.69;5073622;28;20783;-63
2023/06/18 05:34:12;;;;;;;14.20;11.88;;;;;;;22.21;46.83;101134.06;5061955;28;20108;-64
2023/06/18 05:36:37;;;;;;;12.38;10.75;;;;;;;22.27;46.73;101138.38;5064708;28;20494;-64
2023/06/18 05:39:03;;;;;;;11.73;10.48;;;;;;;22.31;46.28;101135.75;5072162;28;20468;-64
2023/06/18 05:41:28;;;;;;;11.00;9.95;;;;;;;22.36;46.11;101134.75;5071154;28;20020;-64
2023/06/18 05:43:53;;;;;;;14.38;12.93;;;;;;;22.39;45.32;101136.94;5072040;28;20056;-64
2023/06/18 05:46:19;;;;;;;13.60;10.63;;;;;;;22.44;45.62;101133.97;5071577;28;20078;-64
2023/06/18 05:48:44;;;;;;;13.18;10.80;;;;;;;22.48;45.30;101137.84;5070459;28;20047;-64
2023/06/18 05:51:10;;;;;;;17.55;11.88;;;;;;;22.50;44.91;101141.16;5071522;28;20024;-64
2023/06/18 05:53:35;;;;;;;9.70;8.70;;;;;;;22.55;45.13;101138.19;5065235;28;20028;-64
2023/06/18 05:56:00;;;;;;;10.45;8.82;;;;;;;22.60;45.11;101140.88;5051358;28;20103;-64
2023/06/18 05:58:26;;;;;;;11.23;9.10;;;;;;;22.61;44.89;101145.38;5053260;28;20071;-64
2023/06/18 06:00:51;;;;;;;10.70;9.02;;;;;;;22.63;44.63;101145.03;5091410;28;20081;-64
2023/06/18 06:03:17;;;;;;;11.15;9.00;;;;;;;22.63;44.69;101145.84;5089536;28;20036;-64
2023/06/18 06:05:42;;;;;;;10.35;9.25;;;;;;;22.65;44.48;101140.72;5090146;28;20024;-64
2023/06/18 06:08:07;;;;;;;9.82;8.63;;;;;;;22.69;44.37;101138.91;5084046;28;20024;-64
2023/06/18 06:10:33;;;;;;;10.52;8.30;;;;;;;22.72;44.44;101140.25;5071365;28;20451;-64
2023/06/18 06:12:59;;;;;;;9.15;8.27;;;;;;;22.74;43.44;101135.06;5067468;28;20036;-64
2023/06/18 06:15:24;;;;;;;14.68;9.57;;;;;;;22.71;42.41;101139.38;5083985;28;20499;-64
2023/06/18 06:17:49;;;;;;;9.07;7.18;;;;;;;22.81;43.92;101141.09;5091809;28;20031;-64
2023/06/18 06:20:15;;;;;;;8.25;7.45;;;;;;;22.85;43.83;101135.63;5089512;28;20032;-64
2023/06/18 06:22:40;;;;;;;7.82;7.05;;;;;;;22.89;43.56;101147.94;5083303;28;20036;-64
2023/06/18 06:25:06;;;;;;;9.60;7.97;;;;;;;22.88;43.19;101146.28;5077930;28;20547;-64
2023/06/18 06:27:33;;;;;;;9.10;7.80;;;;;;;22.87;43.07;101150.25;5086675;28;20032;-64
2023/06/18 06:29:59;;;;;;;9.43;7.03;;;;;;;22.89;43.22;101156.44;5065273;28;20021;-64
2023/06/18 06:32:25;;;;;;;7.45;6.40;;;;;;;22.90;43.14;101158.94;5081121;28;20039;-65
2023/06/18 06:34:50;;;;;;;7.75;6.97;;;;;;;22.87;43.03;101176.59;5087346;28;20065;-65
2023/06/18 06:37:16;;;;;;;8.63;6.90;;;;;;;22.87;42.74;101201.19;5085822;28;20039;-63
2023/06/18 06:39:41;;;;;;;7.68;6.82;;;;;;;22.85;42.83;101203.53;5070871;28;20480;-64
2023/06/18 06:42:06;;;;;;;10.27;6.65;;;;;;;22.82;41.24;101209.84;5085126;28;20365;-64
2023/06/18 06:44:31;;;;;;;7.50;6.40;;;;;;;22.81;41.82;101206.19;5089851;28;20020;-64
2023/06/18 06:46:57;;;;;;;7.30;6.20;;;;;;;22.81;42.66;101203.34;5069702;28;20135;-64
2023/06/18 06:49:22;;;;;;;9.13;6.28;;;;;;;22.80;41.56;101204.53;5070412;28;20089;-64
2023/06/18 06:51:48;;;;;;;8.13;6.15;;;;;;;22.82;42.19;101215.50;5067967;28;20034;-65
2023/06/18 06:54:13;;;;;;;9.80;6.40;;;;;;;22.81;41.88;101213.84;5069259;28;20035;-64
2023/06/18 06:56:39;;;;;;;7.43;6.30;;;;;;;22.83;42.57;101200.19;5070840;28;20452;-64
2023/06/18 06:59:04;;;;;;;10.73;6.80;;;;;;;22.80;41.89;101201.69;5069951;28;20773;-64
2023/06/18 07:01:29;;;;;;;7.40;6.40;;;;;;;22.82;41.61;101198.53;5068628;28;20074;-64
2023/06/18 07:03:55;;;;;;;6.97;6.30;;;;;;;22.83;42.11;101201.03;5054966;28;20547;-64
2023/06/18 07:06:20;;;;;;;8.00;6.28;;;;;;;22.86;42.05;101206.03;5086504;28;20028;-64
2023/06/18 07:08:46;;;;;;;7.90;6.13;;;;;;;22.87;41.67;101201.19;5090502;28;20032;-64
2023/06/18 07:11:11;;;;;;;8.00;6.40;;;;;;;22.86;41.03;101202.38;5071862;28;20136;-64
2023/06/18 07:13:36;;;;;;;7.13;6.32;;;;;;;22.88;41.11;101200.06;5060274;28;20388;-64
2023/06/18 07:16:02;;;;;;;7.38;6.57;;;;;;;22.90;42.57;101204.22;5060577;28;20400;-64
2023/06/18 07:18:27;;;;;;;7.95;6.88;;;;;;;22.92;41.27;101203.94;5055749;28;20395;-64
2023/06/18 07:20:53;;;;;;;6.90;6.03;;;;;;;22.93;41.56;101205.59;5058532;28;20035;-64
2023/06/18 07:23:18;;;;;;;8.50;7.10;;;;;;;22.89;41.21;101211.03;5056107;28;20048;-65
2023/06/18 07:25:43;;;;;;;7.35;6.20;;;;;;;22.94;41.63;101210.09;5069129;28;20438;-63
2023/06/18 07:28:09;;;;;;;12.15;6.68;;;;;;;22.93;41.88;101208.44;5070110;28;20122;-64
2023/06/18 07:30:34;;;;;;;10.65;7.68;;;;;;;22.95;42.01;101208.91;5069434;28;20059;-65
2023/06/18 07:33:00;;;;;;;11.93;7.43;;;;;;;22.97;41.61;101200.94;5067129;28;20028;-64
2023/06/18 07:35:25;;;;;;;10.18;7.03;;;;;;;22.97;41.63;101201.78;5070226;28;20028;-64
2023/06/18 07:37:51;;;;;;;7.28;6.57;;;;;;;23.00;41.75;101194.63;5068489;28;20084;-64
2023/06/18 07:40:16;;;;;;;8.02;6.88;;;;;;;23.00;41.96;101198.28;5069622;28;20070;-65
2023/06/18 07:42:41;;;;;;;8.27;7.47;;;;;;;22.99;42.15;101195.78;5065729;28;20114;-64
2023/06/18 07:45:07;;;;;;;8.82;6.32;;;;;;;23.05;41.88;101200.13;5073379;28;20169;-63
2023/06/18 07:47:32;;;;;;;8.05;6.45;;;;;;;23.06;42.02;101198.97;5069392;28;20046;-63
2023/06/18 07:49:59;;;;;;;10.05;7.07;;;;;;;23.12;42.63;101203.31;5073480;28;20054;-63
2023/06/18 07:52:24;;;;;;;8.02;6.63;;;;;;;23.14;44.23;101200.16;5087068;28;20081;-64
2023/06/18 07:54:49;;;;;;;8.15;6.85;;;;;;;23.15;44.86;101196.19;5072534;28;20067;-64
2023/06/18 07:57:15;;;;;;;10.07;6.90;;;;;;;23.17;44.03;101203.16;5074306;28;20032;-64
2023/06/18 07:59:40;;;;;;;10.25;8.65;;;;;;;23.14;43.79;101200.97;5073376;28;20047;-63
2023/06/18 08:02:06;;;;;;;11.95;8.10;;;;;;;23.17;43.97;101205.97;5064196;28;20029;-64
2023/06/18 08:04:31;;;;;;;11.05;7.40;;;;;;;23.22;44.02;101196.50;5063218;28;20033;-64
2023/06/18 08:06:56;;;;;;;8.80;6.93;;;;;;;23.25;43.90;101191.00;5058278;28;20085;-64
2023/06/18 08:09:22;;;;;;;8.40;6.63;;;;;;;23.27;43.94;101194.34;5081654;28;20024;-63
2023/06/18 08:11:48;;;;;;;8.25;7.10;;;;;;;23.31;43.80;101193.69;5073002;28;20040;-64
2023/06/18 08:14:13;;;;;;;10.02;7.28;;;;;;;23.36;44.06;101199.19;5072753;28;20072;-65
2023/06/18 08:16:39;;;;;;;9.13;7.90;;;;;;;23.42;43.82;101186.53;5073356;28;20028;-64
2023/06/18 08:19:04;;;;;;;8.75;7.50;;;;;;;23.47;43.80;101187.22;5068731;28;20559;-64
2023/06/18 08:21:29;;;;;;;7.45;6.68;;;;;;;23.51;43.93;101187.38;5077313;28;20467;-63
2023/06/18 08:23:56;;;;;;;9.00;7.63;;;;;;;23.51;43.67;101182.53;5060796;28;20039;-64
2023/06/18 08:26:22;;;;;;;10.50;7.10;;;;;;;23.56;43.84;101183.53;5089308;28;20034;-64
2023/06/18 08:28:48;;;;;;;9.80;7.63;;;;;;;23.56;44.04;101180.72;5080207;28;20574;-64
2023/06/18 08:31:14;;;;;;;8.00;6.35;;;;;;;23.58;43.83;101175.53;5073131;28;20131;-63
2023/06/18 08:33:39;;;;;;;8.43;6.75;;;;;;;23.58;43.63;101172.69;5072531;28;20112;-64
2023/06/18 08:36:05;;;;;;;10.32;7.35;;;;;;;23.58;43.95;101175.53;5068496;28;20075;-64
2023/06/18 08:38:30;;;;;;;8.57;7.00;;;;;;;23.60;43.59;101173.22;5072002;28;20024;-63
2023/06/18 08:41:00;;;;;;;8.23;6.90;;;;;;;23.58;43.80;101176.38;5068082;28;20050;-64
2023/06/18 08:43:26;;;;;;;8.05;6.70;;;;;;;23.59;43.94;101172.38;5084923;28;20522;-65
2023/06/18 08:45:53;;;;;;;9.38;6.65;;;;;;;23.57;43.90;101169.03;5071935;28;20032;-65
2023/06/18 08:48:28;;;;;;;10.05;7.20;;;;;;;23.59;43.90;101180.88;5067513;28;20040;-64
2023/06/18 08:51:08;;;;;;;8.65;6.72;;;;;;;23.58;44.21;101176.38;5087316;28;20467;-63
2023/06/18 08:53:44;;;;;;;11.02;7.28;;;;;;;23.58;44.68;101176.38;5090997;28;20074;-64
2023/06/18 08:56:09;;;;;;;12.38;7.40;;;;;;;23.57;45.35;101171.88;5085897;28;20025;-64
2023/06/18 08:58:42;;;;;;;8.48;6.25;;;;;;;23.59;44.24;101168.72;5080556;28;20789;-64
2023/06/18 09:01:07;;;;;;;9.68;7.43;;;;;;;23.58;45.42;101176.38;5092305;28;20032;-63
2023/06/18 09:03:32;;;;;;;9.98;6.75;;;;;;;23.57;44.33;101176.69;5083182;28;20098;-63
2023/06/18 09:05:58;;;;;;;7.60;6.30;;;;;;;23.57;44.38;101171.88;5066977;28;20391;-63
2023/06/18 09:08:24;;;;;;;8.65;6.70;;;;;;;23.55;44.41;101182.72;5071856;28;20032;-63
2023/06/18 09:10:51;;;;;;;7.72;6.93;;;;;;;23.54;44.74;101178.22;5076528;28;20032;-64
2023/06/18 09:13:16;;;;;;;8.52;6.90;;;;;;;23.57;44.62;101182.38;5080682;28;20051;-64
2023/06/18 09:15:42;;;;;;;6.95;6.35;;;;;;;23.56;44.75;101178.72;5087774;28;20044;-64
2023/06/18 09:18:08;;;;;;;10.00;7.93;;;;;;;23.55;45.17;101188.38;5070840;28;20369;-64
2023/06/18 09:20:35;;;;;;;7.22;6.50;;;;;;;23.56;45.17;101177.88;5070214;28;20029;-63
2023/06/18 09:23:07;;;;;;;9.68;7.22;;;;;;;23.57;45.61;101182.38;5071829;28;20044;-64
2023/06/18 09:25:33;;;;;;;10.13;8.20;;;;;;;23.55;45.33;101182.72;5072209;28;20067;-64
2023/06/18 09:27:59;;;;;;;19.45;9.15;;;;;;;23.58;45.77;101182.06;5072229;28;20020;-64
2023/06/18 09:30:25;;;;;;;11.70;7.85;;;;;;;23.56;46.85;101183.53;5071260;28;20039;-63
2023/06/18 09:32:50;;;;;;;10.00;7.18;;;;;;;23.57;45.84;101180.38;5070951;28;20028;-64
2023/06/18 09:35:17;;;;;;;12.15;7.32;;;;;;;23.58;45.97;101181.19;5062869;28;20044;-64
2023/06/18 09:37:43;;;;;;;10.00;7.68;;;;;;;23.57;46.39;101179.53;5071654;28;20464;-64
2023/06/18 09:40:18;;;;;;;9.68;8.02;;;;;;;23.55;45.93;101182.72;5070434;28;20021;-65
2023/06/18 09:42:44;;;;;;;10.18;6.43;;;;;;;23.58;45.88;101186.88;5073115;28;20033;-64
2023/06/18 09:45:11;;;;;;;9.43;7.45;;;;;;;23.56;46.53;101181.53;5072165;28;20480;-65
2023/06/18 09:47:39;;;;;;;10.50;8.48;;;;;;;23.55;46.40;101188.38;5067375;28;20040;-65
2023/06/18 09:50:05;;;;;;;10.25;7.50;;;;;;;23.59;46.96;101183.72;5071406;28;20040;-64
2023/06/18 09:52:40;;;;;;;12.20;7.70;;;;;;;23.58;48.11;101181.19;5072813;28;20532;-64
2023/06/18 09:55:25;;;;;;;12.88;7.13;;;;;;;23.61;47.68;101183.38;5066048;28;20033;-65
2023/06/18 09:57:50;;;;;;;8.95;7.95;;;;;;;23.58;49.21;101179.22;5069892;28;20120;-64
2023/06/18 10:00:16;;;;;;;8.95;7.05;;;;;;;23.60;48.98;101179.72;5070695;28;20111;-65
2023/06/18 10:02:42;;;;;;;10.30;6.95;;;;;;;23.62;49.15;101173.69;5078379;28;20043;-66
2023/06/18 10:05:07;;;;;;;11.80;8.05;;;;;;;23.60;50.21;101176.88;5059172;28;20028;-65
2023/06/18 10:07:39;;;;;;;9.95;8.70;;;;;;;23.59;50.07;101165.88;5069863;28;20565;-64
2023/06/18 10:10:10;;;;;;;14.93;9.77;;;;;;;23.56;51.26;101172.22;5074213;28;20114;-65
2023/06/18 10:12:36;;;;;;;10.75;9.30;;;;;;;23.53;50.99;101162.38;5077541;28;20032;-65
2023/06/18 10:15:03;;;;;;;10.93;8.18;;;;;;;23.54;51.35;101155.56;5069195;28;20412;-65
2023/06/18 10:17:34;;;;;;;8.15;7.35;;;;;;;23.56;50.45;101153.22;5072598;28;20043;-66
2023/06/18 10:20:04;;;;;;;8.95;8.07;;;;;;;23.59;51.52;101152.53;5067548;28;20039;-65
2023/06/18 10:22:34;;;;;;;14.75;11.15;;;;;;;23.54;51.40;101152.72;5066087;28;20062;-66
2023/06/18 10:25:03;;;;;;;12.65;9.32;;;;;;;23.56;51.06;101141.88;5060333;28;20056;-65
2023/06/18 10:27:30;;;;;;;13.60;8.82;;;;;;;23.58;52.06;101135.84;5054565;28;20044;-65
2023/06/18 10:30:01;;;;;;;12.43;9.52;;;;;;;23.59;51.49;101131.88;5054966;28;20032;-65
2023/06/18 10:32:30;;;;;;;11.48;10.27;;;;;;;23.61;53.45;101130.34;5066648;28;20040;-65
2023/06/18 10:34:58;;;;;;;12.82;10.77;;;;;;;23.58;54.90;101131.06;5059719;28;20079;-63
2023/06/18 10:37:25;;;;;;;10.88;9.00;;;;;;;23.60;52.76;101128.69;5052815;28;20033;-65
2023/06/18 10:39:51;;;;;;;10.65;9.57;;;;;;;23.61;53.71;101124.69;5080587;28;20468;-65
2023/06/18 10:42:18;;;;;;;10.88;9.40;;;;;;;23.57;52.48;101129.38;5066562;28;20106;-63
2023/06/18 10:44:57;;;;;;;15.45;10.43;;;;;;;23.59;53.39;101137.56;5076166;28;20533;-63
2023/06/18 10:47:30;;;;;;;11.07;10.05;;;;;;;23.55;53.03;101137.38;5063648;28;20033;-62
2023/06/18 10:50:07;;;;;;;10.75;9.65;;;;;;;23.56;51.92;101127.69;5068296;28;20416;-64
2023/06/18 10:52:39;;;;;;;14.05;10.15;;;;;;;23.56;51.99;101119.22;5070273;28;20123;-63
2023/06/18 10:55:14;;;;;;;12.02;10.23;;;;;;;23.59;52.83;101127.03;5070245;28;20074;-64
2023/06/18 10:57:42;;;;;;;16.10;10.05;;;;;;;23.61;52.07;101130.34;5070021;28;20021;-64
2023/06/18 11:00:25;;;;;;;13.27;10.40;;;;;;;23.66;51.42;101127.41;5070164;28;20074;-63
2023/06/18 11:03:00;;;;;;;12.90;10.15;;;;;;;23.68;51.81;101130.72;5068959;28;20035;-64
2023/06/18 11:05:32;;;;;;;12.10;9.38;;;;;;;23.69;50.77;101128.72;5055751;28;20037;-64
2023/06/18 11:08:05;;;;;;;9.43;8.52;;;;;;;23.70;49.71;101125.56;5050228;28;20036;-63
2023/06/18 11:10:59;;;;;;;10.05;8.93;;;;;;;23.70;50.52;101105.72;5049021;28;20079;-63
2023/06/18 11:13:29;;;;;;;9.68;8.38;;;;;;;23.68;52.39;101112.88;5049981;28;20021;-64
2023/06/18 11:16:07;;;;;;;10.27;8.38;;;;;;;23.72;51.70;101111.06;5050148;28;20131;-63
2023/06/18 11:18:34;;;;;;;8.43;7.63;;;;;;;23.69;51.49;101108.88;5048809;28;20158;-64